Time;durP1;ratioP1;P1;durP2;ratioP2;P2;SDS_P1;SDS_P2;PMS_P1;PMS_P2;Temp;Humidity;BMP_temperature;BMP_pressure;BME280_temperature;BME280_humidity;BME280_pressure;Samples;Min_cycle;Max_cycle;Signal;HPM_P1;HPM_P2
2023/09/14 00:00:20;;;;;;;5.53;3.27;;;;;;;15.12;100.00;102150.66;5181407;28;20072;-69
2023/09/14 00:02:51;;;;;;;6.60;3.63;;;;;;;15.02;100.00;102162.69;5189550;28;20096;-69
2023/09/14 00:05:22;;;;;;;11.47;4.57;;;;;;;14.92;100.00;102152.69;5190806;28;20058;-69
2023/09/14 00:07:54;;;;;;;9.03;4.20;;;;;;;15.01;100.00;102156.53;5189864;28;20100;-70
2023/09/14 00:10:25;;;;;;;15.93;5.33;;;;;;;14.96;100.00;102164.72;5187732;28;20033;-69
2023/09/14 00:12:57;;;;;;;6.37;3.83;;;;;;;14.77;100.00;102157.00;5195167;28;20030;-70
2023/09/14 00:15:29;;;;;;;6.97;3.57;;;;;;;14.85;100.00;102164.50;5190567;28;20145;-70
2023/09/14 00:18:01;;;;;;;9.10;3.73;;;;;;;14.88;100.00;102165.19;5190734;28;20030;-71
2023/09/14 00:20:32;;;;;;;6.23;4.00;;;;;;;14.69;100.00;102160.09;5190526;28;20088;-70
2023/09/14 00:23:03;;;;;;;7.23;4.07;;;;;;;14.62;100.00;102156.09;5198692;28;20046;-68
2023/09/14 00:25:35;;;;;;;12.33;4.70;;;;;;;14.80;100.00;102163.91;5198349;28;20622;-69
2023/09/14 00:28:06;;;;;;;7.17;4.67;;;;;;;14.73;100.00;102163.41;5195278;28;20383;-70
2023/09/14 00:30:37;;;;;;;7.77;4.97;;;;;;;14.75;100.00;102174.69;5194079;28;20027;-70
2023/09/14 00:33:09;;;;;;;7.50;4.13;;;;;;;14.57;100.00;102161.63;5194763;28;20026;-68
2023/09/14 00:35:40;;;;;;;5.13;3.30;;;;;;;14.67;100.00;102164.59;5195354;28;20450;-69
2023/09/14 00:38:11;;;;;;;6.67;3.87;;;;;;;14.63;100.00;102165.69;5199230;28;20073;-69
2023/09/14 00:40:43;;;;;;;9.90;3.87;;;;;;;14.69;100.00;102161.84;5194931;28;20018;-68
2023/09/14 00:43:14;;;;;;;8.27;4.50;;;;;;;14.62;100.00;102158.72;5184125;28;20039;-69
2023/09/14 00:45:45;;;;;;;8.33;4.40;;;;;;;14.48;100.00;102156.84;5186181;28;20034;-69
2023/09/14 00:48:17;;;;;;;8.37;4.70;;;;;;;14.40;100.00;102160.75;5193750;28;20045;-70
2023/09/14 00:50:49;;;;;;;8.07;4.17;;;;;;;14.40;100.00;102166.03;5194952;28;20030;-69
2023/09/14 00:53:20;;;;;;;12.63;4.87;;;;;;;14.54;100.00;102172.31;5195845;28;20039;-68
2023/09/14 00:55:52;;;;;;;7.03;4.73;;;;;;;14.31;100.00;102168.34;5194743;28;20470;-69
2023/09/14 00:58:23;;;;;;;9.83;4.43;;;;;;;14.55;100.00;102160.00;5192914;28;20030;-69
2023/09/14 01:00:57;;;;;;;7.93;3.77;;;;;;;14.45;100.00;102154.41;5193426;28;20079;-70
2023/09/14 01:03:28;;;;;;;12.02;4.22;;;;;;;14.37;100.00;102160.06;5194315;28;20034;-69
2023/09/14 01:05:59;;;;;;;15.00;4.63;;;;;;;14.21;100.00;102152.16;5207867;28;20045;-69
2023/09/14 01:08:31;;;;;;;7.37;4.47;;;;;;;14.20;100.00;102153.97;5194114;28;20035;-70
2023/09/14 01:11:02;;;;;;;8.53;4.03;;;;;;;14.28;100.00;102159.66;5193243;28;20363;-69
2023/09/14 01:13:59;;;;;;;9.73;4.50;;;;;;;14.63;100.00;102163.03;5193860;28;20087;-70
2023/09/14 01:16:42;;;;;;;6.73;3.73;;;;;;;14.66;100.00;102160.22;5179995;28;20030;-69
2023/09/14 01:19:30;;;;;;;8.57;3.90;;;;;;;14.56;100.00;102167.81;5192755;28;20034;-68
2023/09/14 01:22:21;;;;;;;5.77;3.63;;;;;;;14.72;100.00;102169.59;5182249;28;20027;-69
2023/09/14 01:25:01;;;;;;;10.13;4.23;;;;;;;14.34;100.00;102176.06;5182959;28;20038;-68
2023/09/14 01:27:32;;;;;;;6.43;3.80;;;;;;;14.58;100.00;102173.00;5187953;28;20059;-68
2023/09/14 01:30:06;;;;;;;7.03;4.43;;;;;;;14.37;100.00;102167.97;5180247;28;20115;-68
2023/09/14 01:32:37;;;;;;;8.43;3.97;;;;;;;14.29;100.00;102163.16;5187383;28;20113;-70
2023/09/14 01:35:08;;;;;;;13.07;4.40;;;;;;;14.20;100.00;102164.50;5187596;28;20469;-69
2023/09/14 01:37:40;;;;;;;10.17;5.10;;;;;;;14.10;100.00;102165.94;5193417;28;20026;-68
2023/09/14 01:40:12;;;;;;;6.67;4.93;;;;;;;14.20;100.00;102164.50;5173143;28;20038;-69
2023/09/14 01:42:44;;;;;;;7.17;4.10;;;;;;;14.13;100.00;102168.38;5192856;28;20038;-68
2023/09/14 01:45:16;;;;;;;5.13;3.63;;;;;;;14.08;100.00;102166.00;5183837;28;20385;-68
2023/09/14 01:47:52;;;;;;;7.03;4.20;;;;;;;14.22;100.00;102169.69;5191176;28;20034;-69
2023/09/14 01:50:23;;;;;;;9.40;4.57;;;;;;;13.98;100.00;102160.38;5192637;28;20076;-70
2023/09/14 01:52:55;;;;;;;8.63;4.03;;;;;;;13.96;100.00;102159.63;5192141;28;20521;-70
2023/09/14 01:55:27;;;;;;;7.37;3.73;;;;;;;13.97;100.00;102169.22;5192441;28;20018;-69
2023/09/14 01:57:58;;;;;;;6.77;3.73;;;;;;;14.02;100.00;102161.91;5189545;28;20046;-70
2023/09/14 02:00:30;;;;;;;6.93;4.00;;;;;;;13.91;100.00;102164.28;5186842;28;20026;-69
2023/09/14 02:03:01;;;;;;;6.73;4.03;;;;;;;13.86;100.00;102161.88;5184766;28;20034;-71
2023/09/14 02:05:32;;;;;;;6.73;3.43;;;;;;;13.95;100.00;102157.91;5188617;28;20581;-70
2023/09/14 02:08:04;;;;;;;5.73;3.90;;;;;;;13.76;100.00;102161.53;5189077;28;20046;-69
2023/09/14 02:10:35;;;;;;;5.27;4.20;;;;;;;13.76;100.00;102151.00;5183185;28;20046;-69
2023/09/14 02:13:07;;;;;;;6.93;4.03;;;;;;;13.90;100.00;102160.78;5192568;28;20034;-69
2023/09/14 02:15:38;;;;;;;9.73;5.13;;;;;;;14.08;100.00;102162.53;5195955;28;20501;-70
2023/09/14 02:18:09;;;;;;;6.83;3.83;;;;;;;14.10;100.00;102153.59;5193607;28;20693;-69
2023/09/14 02:20:41;;;;;;;9.57;4.30;;;;;;;14.14;100.00;102160.41;5186393;28;20030;-69
2023/09/14 02:23:12;;;;;;;9.93;4.50;;;;;;;13.90;100.00;102158.16;5194988;28;20057;-68
2023/09/14 02:25:44;;;;;;;7.20;3.60;;;;;;;13.77;100.00;102157.13;5193931;28;20512;-68
2023/09/14 02:28:15;;;;;;;11.40;4.40;;;;;;;13.84;100.00;102147.94;5189791;28;20177;-69
2023/09/14 02:30:47;;;;;;;7.53;3.87;;;;;;;13.94;100.00;102153.59;5172438;28;20721;-68
2023/09/14 02:33:18;;;;;;;6.07;3.80;;;;;;;13.74;100.00;102147.56;5177548;28;20477;-68
2023/09/14 02:35:50;;;;;;;7.67;4.10;;;;;;;13.71;100.00;102147.75;5176472;28;20035;-68
2023/09/14 02:38:22;;;;;;;6.53;3.90;;;;;;;13.72;100.00;102141.53;5189218;28;20050;-68
2023/09/14 02:40:53;;;;;;;9.70;4.47;;;;;;;13.64;100.00;102138.47;5188904;28;20034;-68
2023/09/14 02:43:24;;;;;;;8.77;4.37;;;;;;;13.68;100.00;102137.38;5187075;28;20069;-68
2023/09/14 02:45:55;;;;;;;10.13;4.60;;;;;;;13.52;100.00;102135.56;5190306;28;20034;-68
2023/09/14 02:48:27;;;;;;;9.33;3.90;;;;;;;13.52;100.00;102137.31;5189979;28;20112;-68
2023/09/14 02:50:58;;;;;;;7.00;4.00;;;;;;;13.53;100.00;102147.75;5192249;28;20041;-68
2023/09/14 02:53:29;;;;;;;10.67;3.90;;;;;;;13.59;100.00;102143.97;5182218;28;20061;-68
2023/09/14 02:56:07;;;;;;;8.23;4.00;;;;;;;13.50;100.00;102144.41;5192095;28;20172;-69
2023/09/14 02:58:38;;;;;;;8.03;4.30;;;;;;;13.37;100.00;102144.19;5190373;28;20034;-69
2023/09/14 03:01:10;;;;;;;7.83;4.20;;;;;;;13.42;100.00;102143.03;5187084;28;20046;-69
2023/09/14 03:03:41;;;;;;;7.87;4.20;;;;;;;13.25;100.00;102140.38;5191070;28;20038;-67
2023/09/14 03:06:13;;;;;;;5.93;4.33;;;;;;;13.46;100.00;102137.63;5190511;28;20030;-68
2023/09/14 03:08:44;;;;;;;8.23;4.47;;;;;;;13.41;100.00;102140.47;5186433;28;20038;-68
2023/09/14 03:11:15;;;;;;;8.73;4.57;;;;;;;13.43;100.00;102143.88;5183704;28;20038;-68
2023/09/14 03:13:47;;;;;;;7.10;3.77;;;;;;;13.48;100.00;102144.50;5178157;28;20390;-68
2023/09/14 03:16:18;;;;;;;7.17;4.20;;;;;;;13.66;100.00;102141.88;5179687;28;20042;-67
2023/09/14 03:18:49;;;;;;;6.97;4.00;;;;;;;13.70;100.00;102129.41;5189102;28;20035;-68
2023/09/14 03:21:26;;;;;;;8.53;4.63;;;;;;;13.54;100.00;102141.56;5194683;28;20096;-68
2023/09/14 03:23:57;;;;;;;6.80;4.30;;;;;;;13.31;100.00;102145.34;5189013;28;20050;-70
2023/09/14 03:26:29;;;;;;;10.03;5.07;;;;;;;13.47;100.00;102145.44;5192245;28;20129;-69
2023/09/14 03:29:01;;;;;;;13.17;5.37;;;;;;;13.42;100.00;102152.72;5198144;28;20026;-70
2023/09/14 03:31:32;;;;;;;6.80;4.00;;;;;;;13.44;100.00;102153.47;5203927;28;20057;-70
2023/09/14 03:34:05;;;;;;;5.90;4.20;;;;;;;13.29;100.00;102157.72;5190106;28;20061;-68
2023/09/14 03:36:36;;;;;;;11.20;4.70;;;;;;;13.26;100.00;102148.22;5188287;28;20023;-68
2023/09/14 03:39:08;;;;;;;8.57;3.90;;;;;;;13.40;100.00;102157.19;5199986;28;20026;-69
2023/09/14 03:41:39;;;;;;;7.37;4.67;;;;;;;13.24;100.00;102144.81;5194455;28;20029;-69
2023/09/14 03:44:11;;;;;;;9.47;5.00;;;;;;;13.24;100.00;102150.09;5189186;28;20065;-69
2023/09/14 03:46:42;;;;;;;11.23;4.47;;;;;;;13.21;100.00;102141.50;5201433;28;20497;-67
2023/09/14 03:49:13;;;;;;;8.97;4.50;;;;;;;13.21;100.00;102149.38;5198974;28;20453;-68
2023/09/14 03:51:45;;;;;;;11.50;5.07;;;;;;;13.12;100.00;102151.56;5209971;28;20072;-68
2023/09/14 03:54:16;;;;;;;6.43;4.10;;;;;;;13.51;100.00;102146.13;5207899;28;20121;-67
2023/09/14 03:56:47;;;;;;;7.83;4.30;;;;;;;13.48;100.00;102147.13;5195388;28;20065;-69
2023/09/14 03:59:19;;;;;;;8.90;4.93;;;;;;;13.57;100.00;102150.22;5213505;28;20022;-69
2023/09/14 04:01:50;;;;;;;6.57;4.17;;;;;;;13.55;100.00;102148.53;5203276;28;20504;-69
2023/09/14 04:04:21;;;;;;;7.67;4.20;;;;;;;13.24;100.00;102150.09;5216993;28;20609;-69
2023/09/14 04:06:53;;;;;;;7.00;5.07;;;;;;;13.30;100.00;102148.91;5199583;28;20038;-69
2023/09/14 04:09:29;;;;;;;8.33;4.97;;;;;;;13.22;100.00;102145.81;5196332;28;20113;-68
2023/09/14 04:12:00;;;;;;;13.80;5.60;;;;;;;13.10;100.00;102135.00;5196319;28;20045;-70
2023/09/14 04:14:32;;;;;;;7.83;4.93;;;;;;;13.40;100.00;102146.66;5198012;28;20037;-68
2023/09/14 04:17:03;;;;;;;6.80;4.60;;;;;;;13.11;100.00;102141.09;5191729;28;20026;-68
2023/09/14 04:19:34;;;;;;;7.13;4.27;;;;;;;13.29;100.00;102142.81;5195437;28;20019;-68
2023/09/14 04:22:06;;;;;;;7.50;4.53;;;;;;;13.01;100.00;102124.91;5192640;28;20029;-69
2023/09/14 04:24:37;;;;;;;7.60;4.07;;;;;;;13.03;100.00;102141.47;5197026;28;20874;-70
2023/09/14 04:27:09;;;;;;;9.33;4.90;;;;;;;13.03;100.00;102142.34;5188718;28;20057;-69
2023/09/14 04:29:40;;;;;;;8.37;5.47;;;;;;;13.00;100.00;102136.38;5194804;28;20033;-69
2023/09/14 04:32:12;;;;;;;9.33;5.17;;;;;;;13.04;100.00;102138.78;5195539;28;20053;-68
2023/09/14 04:34:43;;;;;;;9.67;5.40;;;;;;;12.99;100.00;102135.50;5201599;28;20037;-68
2023/09/14 04:37:14;;;;;;;8.90;6.53;;;;;;;13.00;100.00;102150.38;5195592;28;20040;-68
2023/09/14 04:39:46;;;;;;;7.43;5.10;;;;;;;13.03;100.00;102144.97;5197256;28;20030;-69
2023/09/14 04:42:17;;;;;;;7.33;4.77;;;;;;;12.89;100.00;102131.63;5210612;28;20069;-68
2023/09/14 04:44:50;;;;;;;7.90;5.13;;;;;;;12.83;100.00;102125.75;5184650;28;20034;-68
2023/09/14 04:47:22;;;;;;;7.13;4.45;;;;;;;12.88;100.00;102137.84;5190397;28;20037;-68
2023/09/14 04:49:53;;;;;;;8.47;5.47;;;;;;;12.90;100.00;102149.09;5201680;28;20022;-69
2023/09/14 04:52:24;;;;;;;6.60;4.07;;;;;;;12.89;100.00;102145.66;5203888;28;20096;-69
2023/09/14 04:54:56;;;;;;;9.47;5.33;;;;;;;12.92;100.00;102142.00;5203032;28;20034;-70
2023/09/14 04:57:27;;;;;;;6.60;4.53;;;;;;;12.90;100.00;102142.06;5206572;28;20038;-69
2023/09/14 04:59:58;;;;;;;9.07;5.40;;;;;;;12.95;100.00;102144.50;5194587;28;20026;-69
2023/09/14 05:02:30;;;;;;;9.00;5.43;;;;;;;12.94;100.00;102143.66;5187644;28;20030;-69
2023/09/14 05:05:02;;;;;;;9.07;5.90;;;;;;;12.87;100.00;102146.63;5187350;28;20038;-69
2023/09/14 05:07:34;;;;;;;10.90;5.93;;;;;;;13.00;100.00;102139.88;5188954;28;20057;-68
2023/09/14 05:10:07;;;;;;;8.77;5.30;;;;;;;12.92;100.00;102139.38;5177555;28;20453;-69
2023/09/14 05:12:39;;;;;;;10.63;6.00;;;;;;;12.88;100.00;102143.09;5187054;28;20046;-68
2023/09/14 05:15:10;;;;;;;12.13;5.87;;;;;;;12.81;100.00;102148.63;5184998;28;20058;-68
2023/09/14 05:17:41;;;;;;;10.23;6.33;;;;;;;12.81;100.00;102148.63;5196634;28;20049;-68
2023/09/14 05:20:14;;;;;;;11.50;5.70;;;;;;;12.79;100.00;102150.47;5198246;28;20504;-68
2023/09/14 05:22:46;;;;;;;9.27;6.30;;;;;;;12.79;100.00;102155.75;5188842;28;20512;-68
2023/09/14 05:25:17;;;;;;;8.77;5.93;;;;;;;12.66;100.00;102158.13;5200484;28;20058;-68
2023/09/14 05:27:48;;;;;;;10.17;5.80;;;;;;;12.79;100.00;102163.63;5208043;28;20353;-68
2023/09/14 05:30:22;;;;;;;7.03;5.90;;;;;;;12.72;100.00;102164.00;5210179;28;20030;-67
2023/09/14 05:32:53;;;;;;;7.00;4.95;;;;;;;12.75;100.00;102167.34;5191820;28;20037;-67
2023/09/14 05:35:26;;;;;;;12.10;6.97;;;;;;;12.71;100.00;102171.03;5190502;28;20038;-67
2023/09/14 05:38:00;;;;;;;9.43;5.50;;;;;;;12.69;100.00;102178.13;5188891;28;20026;-67
2023/09/14 05:40:32;;;;;;;;;;;;;;;13.31;100.00;102171.66;5199944;28;20114;-67
2023/09/14 05:43:03;;;;;;;11.97;5.33;;;;;;;12.83;100.00;102178.34;5201528;28;19996;-68
2023/09/14 05:45:34;;;;;;;11.80;6.40;;;;;;;12.90;100.00;102180.66;5199872;28;20031;-69
2023/09/14 05:48:06;;;;;;;9.90;6.07;;;;;;;12.82;100.00;102175.78;5200162;28;20030;-69
2023/09/14 05:50:37;;;;;;;10.30;5.77;;;;;;;12.92;100.00;102176.19;5201406;28;20037;-69
2023/09/14 05:53:10;;;;;;;9.17;5.90;;;;;;;12.76;100.00;102176.09;5191906;28;20103;-67
2023/09/14 05:55:41;;;;;;;8.37;5.40;;;;;;;12.89;100.00;102181.59;5193094;28;20039;-67
2023/09/14 05:58:12;;;;;;;9.47;5.97;;;;;;;12.96;100.00;102180.38;5184362;28;20027;-67
2023/09/14 06:00:43;;;;;;;8.13;5.53;;;;;;;13.03;100.00;102184.41;5201932;28;20437;-66
2023/09/14 06:03:15;;;;;;;9.47;5.90;;;;;;;13.04;100.00;102180.84;5202615;28;20034;-67
2023/09/14 06:05:46;;;;;;;7.40;5.47;;;;;;;13.19;100.00;102175.78;5211350;28;20026;-68
2023/09/14 06:08:17;;;;;;;10.10;5.80;;;;;;;13.16;100.00;102179.38;5212177;28;20032;-68
2023/09/14 06:10:49;;;;;;;9.63;5.73;;;;;;;13.22;100.00;102161.59;5206045;28;20030;-69
2023/09/14 06:13:20;;;;;;;8.70;5.50;;;;;;;13.12;100.00;102171.72;5190111;28;20026;-68
2023/09/14 06:15:52;;;;;;;11.60;5.77;;;;;;;13.34;100.00;102181.16;5191838;28;20477;-72
2023/09/14 06:18:23;;;;;;;9.40;6.07;;;;;;;13.44;100.00;102177.16;5191169;28;20042;-67
2023/09/14 06:20:54;;;;;;;11.07;6.23;;;;;;;13.40;100.00;102170.34;5190636;28;20026;-67
2023/09/14 06:23:26;;;;;;;9.40;5.43;;;;;;;13.39;100.00;102176.53;5173465;28;20446;-67
2023/09/14 06:25:58;;;;;;;9.83;6.13;;;;;;;13.62;100.00;102179.81;5191361;28;20030;-67
2023/09/14 06:28:29;;;;;;;11.27;5.77;;;;;;;13.69;100.00;102181.19;5192081;28;20112;-67
2023/09/14 06:31:00;;;;;;;14.40;6.27;;;;;;;13.71;100.00;102181.97;5189724;28;20029;-70
2023/09/14 06:33:32;;;;;;;9.73;6.27;;;;;;;13.84;100.00;102178.69;5192112;28;20482;-68
2023/09/14 06:36:03;;;;;;;15.20;6.83;;;;;;;13.92;100.00;102181.78;5192125;28;20109;-68
2023/09/14 06:38:34;;;;;;;13.47;7.07;;;;;;;14.03;100.00;102179.41;5191404;28;20030;-69
2023/09/14 06:41:08;;;;;;;10.03;6.53;;;;;;;14.02;100.00;102187.41;5190086;28;20030;-68
2023/09/14 06:43:46;;;;;;;13.25;7.53;;;;;;;14.18;100.00;102182.16;5189703;28;20041;-68
2023/09/14 06:46:17;;;;;;;17.80;8.50;;;;;;;14.13;100.00;102184.19;5191700;28;20512;-68
2023/09/14 06:48:48;;;;;;;12.17;6.50;;;;;;;14.22;100.00;102183.72;5191344;28;20023;-68
2023/09/14 06:51:20;;;;;;;13.77;7.43;;;;;;;14.19;100.00;102183.84;5191018;28;20065;-68
2023/09/14 06:53:51;;;;;;;11.67;7.40;;;;;;;14.28;100.00;102183.38;5191548;28;20466;-68
2023/09/14 06:56:22;;;;;;;9.50;7.03;;;;;;;14.35;100.00;102177.75;5190545;28;20032;-69
2023/09/14 06:58:54;;;;;;;13.60;7.87;;;;;;;14.38;100.00;102177.59;5189397;28;20033;-67
2023/09/14 07:01:25;;;;;;;13.17;8.77;;;;;;;14.42;100.00;102179.13;5191506;28;20093;-68
2023/09/14 07:03:57;;;;;;;17.90;8.07;;;;;;;14.51;100.00;102188.31;5191474;28;20030;-68
2023/09/14 07:06:28;;;;;;;14.10;7.60;;;;;;;14.61;100.00;102188.63;5190414;28;20509;-68
2023/09/14 07:08:59;;;;;;;14.33;7.70;;;;;;;14.70;100.00;102189.91;5190693;28;20110;-69
2023/09/14 07:11:31;;;;;;;12.67;7.53;;;;;;;14.86;100.00;102188.16;5189817;28;20023;-68
2023/09/14 07:14:02;;;;;;;11.40;7.70;;;;;;;14.95;100.00;102189.44;5190197;28;20034;-67
2023/09/14 07:16:34;;;;;;;14.40;8.10;;;;;;;15.10;100.00;102189.47;5190142;28;20030;-67
2023/09/14 07:19:06;;;;;;;15.30;7.83;;;;;;;15.17;100.00;102182.06;5190824;28;20060;-66
2023/09/14 07:21:37;;;;;;;11.53;7.90;;;;;;;15.37;100.00;102183.53;5190736;28;20038;-69
2023/09/14 07:24:08;;;;;;;13.60;7.30;;;;;;;15.50;100.00;102175.72;5189356;28;20089;-68
2023/09/14 07:26:40;;;;;;;19.63;8.87;;;;;;;15.59;100.00;102179.59;5200509;28;20050;-68
2023/09/14 07:29:11;;;;;;;15.63;8.97;;;;;;;15.73;100.00;102170.84;5205483;28;20085;-66
2023/09/14 07:31:42;;;;;;;14.93;8.33;;;;;;;15.93;100.00;102187.28;5196936;28;20029;-66
2023/09/14 07:34:14;;;;;;;14.43;8.57;;;;;;;16.07;100.00;102191.75;5179596;28;20077;-68
2023/09/14 07:36:45;;;;;;;13.13;7.67;;;;;;;16.19;100.00;102193.63;5182254;28;20026;-67
2023/09/14 07:39:16;;;;;;;14.43;7.47;;;;;;;16.38;100.00;102195.09;5179447;28;20046;-69
2023/09/14 07:41:48;;;;;;;15.47;8.00;;;;;;;16.64;100.00;102203.16;5178831;28;20111;-67
2023/09/14 07:44:19;;;;;;;14.60;8.47;;;;;;;16.85;100.00;102200.06;5176609;28;20712;-64
2023/09/14 07:46:50;;;;;;;14.23;8.50;;;;;;;17.13;100.00;102206.22;5176592;28;20146;-64
2023/09/14 07:49:22;;;;;;;18.73;8.43;;;;;;;17.47;100.00;102204.94;5177169;28;20050;-65
2023/09/14 07:51:53;;;;;;;14.83;8.57;;;;;;;17.91;100.00;102197.50;5178586;28;20038;-66
2023/09/14 07:54:24;;;;;;;15.30;7.83;;;;;;;18.37;100.00;102204.03;5177088;28;20019;-66
2023/09/14 07:56:55;;;;;;;24.40;7.90;;;;;;;18.83;100.00;102198.16;5176903;28;20031;-67
2023/09/14 07:59:28;;;;;;;18.50;8.23;;;;;;;18.95;100.00;102207.84;5176813;28;20034;-68
2023/09/14 08:01:59;;;;;;;8.57;6.37;;;;;;;19.51;100.00;102205.53;5186825;28;20090;-68
2023/09/14 08:04:31;;;;;;;11.93;7.30;;;;;;;20.02;100.00;102208.69;5186317;28;20126;-69
2023/09/14 08:07:02;;;;;;;15.33;7.40;;;;;;;20.05;100.00;102203.19;5185715;28;20436;-68
2023/09/14 08:09:33;;;;;;;11.80;7.17;;;;;;;20.51;100.00;102211.06;5186802;28;20121;-67
2023/09/14 08:12:05;;;;;;;13.15;7.88;;;;;;;21.15;100.00;102213.88;5188645;28;20432;-68
2023/09/14 08:14:37;;;;;;;16.30;7.80;;;;;;;21.35;100.00;102202.53;5189399;28;20485;-69
2023/09/14 08:17:11;;;;;;;16.20;7.70;;;;;;;21.26;100.00;102178.34;5175850;28;20030;-67
2023/09/14 08:19:43;;;;;;;13.40;7.90;;;;;;;21.82;100.00;102199.44;5167791;28;20061;-68
2023/09/14 08:22:19;;;;;;;10.95;6.88;;;;;;;22.29;100.00;102200.72;5188093;28;20077;-66
2023/09/14 08:24:51;;;;;;;11.07;8.02;;;;;;;22.65;100.00;102205.59;5187999;28;20501;-67
2023/09/14 08:27:22;;;;;;;13.40;8.15;;;;;;;23.16;100.00;102205.41;5189247;28;20086;-67
2023/09/14 08:29:54;;;;;;;14.18;7.95;;;;;;;24.00;100.00;102209.31;5187960;28;20030;-68
2023/09/14 08:32:25;;;;;;;14.35;8.77;;;;;;;23.83;100.00;102209.06;5188985;28;20030;-67
2023/09/14 08:34:58;;;;;;;11.85;9.07;;;;;;;24.60;100.00;102213.31;5189175;28;20488;-68
2023/09/14 08:37:29;;;;;;;14.00;9.18;;;;;;;24.38;100.00;102209.25;5190634;28;20033;-68
2023/09/14 08:40:01;;;;;;;12.13;8.52;;;;;;;24.73;100.00;102222.81;5193359;28;20030;-69
2023/09/14 08:42:32;;;;;;;13.55;8.88;;;;;;;23.97;100.00;102222.94;5192736;28;20080;-68
2023/09/14 08:45:04;;;;;;;14.13;9.27;;;;;;;24.19;100.00;102223.59;5192410;28;20070;-69
2023/09/14 08:47:41;;;;;;;15.60;8.88;;;;;;;24.46;100.00;102221.88;5193678;28;20034;-68
2023/09/14 08:50:14;;;;;;;14.77;9.52;;;;;;;24.41;100.00;102225.84;5192712;28;20501;-68
2023/09/14 08:52:46;;;;;;;13.20;11.60;;;;;;;24.44;100.00;102221.16;5192545;28;20495;-69
2023/09/14 08:55:19;;;;;;;11.75;8.63;;;;;;;24.40;100.00;102218.81;5191485;28;20034;-68
2023/09/14 08:57:51;;;;;;;18.80;12.13;;;;;;;25.17;100.00;102213.97;5193156;28;20522;-68
2023/09/14 09:00:26;;;;;;;12.73;8.95;;;;;;;26.20;100.00;102207.97;5191229;28;20104;-69
2023/09/14 09:02:58;;;;;;;14.35;9.68;;;;;;;26.80;93.80;102200.72;5192489;28;20071;-68
2023/09/14 09:05:30;;;;;;;11.77;9.18;;;;;;;27.39;86.11;102192.59;5191598;28;20109;-67
2023/09/14 09:08:01;;;;;;;10.50;8.98;;;;;;;27.52;85.99;102208.22;5202450;28;20022;-68
2023/09/14 09:10:34;;;;;;;13.70;9.30;;;;;;;27.43;83.30;102202.03;5206061;28;20033;-68
2023/09/14 09:13:06;;;;;;;15.47;7.50;;;;;;;27.24;79.58;102216.69;5190872;28;20026;-69
2023/09/14 09:15:38;;;;;;;12.27;8.18;;;;;;;27.83;80.86;102209.31;5192219;28;20030;-67
2023/09/14 09:18:11;;;;;;;13.27;7.85;;;;;;;27.03;85.72;102205.47;5192709;28;20060;-69
2023/09/14 09:20:45;;;;;;;11.48;7.95;;;;;;;28.13;74.22;102204.97;5192077;28;20077;-67
2023/09/14 09:23:20;;;;;;;11.65;8.43;;;;;;;27.80;77.69;102205.13;5192505;28;20112;-68
2023/09/14 09:25:53;;;;;;;14.75;7.78;;;;;;;27.96;72.12;102204.19;5191904;28;20173;-68
2023/09/14 09:28:29;;;;;;;12.02;7.65;;;;;;;28.57;67.02;102201.84;5190428;28;20063;-66
2023/09/14 09:31:01;;;;;;;12.05;8.35;;;;;;;28.67;58.89;102198.91;5191563;28;20033;-68
2023/09/14 09:33:36;;;;;;;11.60;8.05;;;;;;;30.25;55.23;102207.19;5190018;28;20026;-68
2023/09/14 09:36:15;;;;;;;10.93;7.72;;;;;;;30.58;57.75;102209.34;5182161;28;20378;-67
2023/09/14 09:38:47;;;;;;;7.28;5.50;;;;;;;29.35;55.75;102208.91;5189319;28;20075;-69
2023/09/14 09:41:19;;;;;;;7.50;5.15;;;;;;;28.96;51.57;102208.09;5212779;28;20054;-69
2023/09/14 09:43:51;;;;;;;10.40;6.25;;;;;;;29.74;50.98;102206.16;5210327;28;20061;-67
2023/09/14 09:46:23;;;;;;;11.48;7.15;;;;;;;28.73;53.68;102199.00;5199932;28;20507;-67
2023/09/14 09:48:54;;;;;;;8.05;5.60;;;;;;;27.60;55.36;102204.66;5179475;28;20023;-68
2023/09/14 09:51:26;;;;;;;9.18;6.70;;;;;;;27.01;53.19;102198.53;5172147;28;20026;-68
2023/09/14 09:54:02;;;;;;;9.00;6.13;;;;;;;26.39;57.91;102200.69;5171440;28;20061;-68
2023/09/14 09:56:36;;;;;;;11.20;6.50;;;;;;;27.49;53.20;102193.25;5170155;28;20027;-68
2023/09/14 09:59:12;;;;;;;;;;;;;;;28.67;56.69;102191.66;5170447;28;20732;-67
2023/09/14 10:01:46;;;;;;;11.23;7.40;;;;;;;26.93;54.93;102189.47;5171540;28;19914;-69
2023/09/14 10:04:20;;;;;;;9.80;5.85;;;;;;;26.75;56.91;102195.03;5171269;28;20125;-68
2023/09/14 10:06:55;;;;;;;11.68;6.93;;;;;;;25.55;56.71;102194.13;5169484;28;20042;-68
2023/09/14 10:09:34;;;;;;;9.25;5.72;;;;;;;26.88;54.39;102188.31;5170350;28;20031;-68
2023/09/14 10:12:06;;;;;;;11.07;5.93;;;;;;;27.27;52.98;102184.06;5169891;28;20839;-68
2023/09/14 10:14:40;;;;;;;8.95;5.25;;;;;;;27.28;50.86;102181.19;5168835;28;20055;-70
2023/09/14 10:17:19;;;;;;;7.75;5.03;;;;;;;26.46;55.35;102181.06;5170285;28;20080;-69
2023/09/14 10:19:51;;;;;;;8.68;4.95;;;;;;;25.54;54.32;102185.22;5187567;28;20038;-68
2023/09/14 10:22:23;;;;;;;8.82;4.35;;;;;;;25.62;57.73;102187.13;5174173;28;20462;-69
2023/09/14 10:24:55;;;;;;;8.88;5.18;;;;;;;26.77;53.99;102179.56;5190942;28;20164;-68
2023/09/14 10:27:30;;;;;;;8.73;4.60;;;;;;;27.48;49.92;102174.59;5191263;28;20109;-69
2023/09/14 10:30:06;;;;;;;7.75;4.53;;;;;;;26.91;49.36;102190.66;5190227;28;20050;-69
2023/09/14 10:32:39;;;;;;;6.05;4.85;;;;;;;26.48;55.63;102180.88;5191502;28;20137;-68
2023/09/14 10:35:11;;;;;;;7.82;4.75;;;;;;;26.75;49.94;102181.59;5190618;28;20023;-69
2023/09/14 10:37:44;;;;;;;7.18;4.40;;;;;;;26.43;54.11;102178.69;5191560;28;20389;-68
2023/09/14 10:40:17;;;;;;;7.72;5.50;;;;;;;26.05;52.46;102176.41;5189117;28;20034;-68
2023/09/14 10:42:48;;;;;;;7.03;4.78;;;;;;;26.64;51.50;102165.78;5190190;28;20072;-68
2023/09/14 10:45:20;;;;;;;7.22;4.50;;;;;;;26.09;51.17;102164.34;5187577;28;20058;-68
2023/09/14 10:47:52;;;;;;;7.15;4.07;;;;;;;27.38;47.37;102169.44;5190108;28;20042;-68
2023/09/14 10:50:24;;;;;;;7.10;4.10;;;;;;;27.40;46.35;102164.72;5172472;28;20191;-68
2023/09/14 10:52:56;;;;;;;5.03;3.42;;;;;;;26.48;51.70;102154.03;5188395;28;20417;-67
2023/09/14 10:55:28;;;;;;;7.22;4.05;;;;;;;26.79;51.23;102161.41;5185091;28;20026;-67
2023/09/14 10:58:00;;;;;;;5.72;3.38;;;;;;;26.09;51.17;102150.09;5189820;28;20124;-69
2023/09/14 11:00:36;;;;;;;6.40;3.40;;;;;;;26.15;50.48;102154.78;5189868;28;20038;-68
2023/09/14 11:03:13;;;;;;;6.38;3.63;;;;;;;25.23;52.39;102150.88;5173508;28;20066;-70
2023/09/14 11:05:48;;;;;;;5.22;3.38;;;;;;;26.43;49.25;102149.16;5173896;28;20500;-70
2023/09/14 11:08:20;;;;;;;7.07;3.95;;;;;;;26.17;49.66;102141.19;5173298;28;20034;-74
2023/09/14 11:10:56;;;;;;;5.78;3.28;;;;;;;26.65;49.04;102133.38;5170842;28;20031;-73
2023/09/14 11:13:33;;;;;;;4.20;3.22;;;;;;;26.09;52.75;102144.72;5169373;28;20489;-74
2023/09/14 11:16:25;;;;;;;6.22;3.78;;;;;;;26.53;50.63;102146.31;5200234;28;20042;-68
2023/09/14 11:18:57;;;;;;;4.05;2.20;;;;;;;26.69;45.62;102150.00;5184739;28;20138;-70
2023/09/14 11:21:34;;;;;;;4.70;2.45;;;;;;;26.20;47.54;102143.56;5181074;28;20030;-70
2023/09/14 11:24:05;;;;;;;4.35;1.80;;;;;;;26.49;50.03;102144.97;5179367;28;20042;-71
2023/09/14 11:26:44;;;;;;;6.95;2.78;;;;;;;26.81;50.75;102145.16;5179943;28;20565;-69
2023/09/14 11:29:16;;;;;;;5.10;2.90;;;;;;;27.04;47.63;102142.59;5179752;28;20536;-70
2023/09/14 11:31:56;;;;;;;5.35;2.90;;;;;;;27.13;49.03;102147.97;5179975;28;20584;-69
2023/09/14 11:34:31;;;;;;;5.63;2.22;;;;;;;27.08;45.37;102142.25;5180401;28;20113;-70
2023/09/14 11:37:05;;;;;;;4.45;2.17;;;;;;;26.91;47.71;102147.66;5179858;28;20038;-70
2023/09/14 11:39:40;;;;;;;7.80;3.00;;;;;;;27.10;46.64;102124.97;5181051;28;20058;-68